sensor_id;sensor_type;location;lat;lon;timestamp;P1;durP1;ratioP1;P2;durP2;ratioP2
34711;SDS011;20941;42.408;25.634;2024-01-15T00:01:11;62.72;;;22.20;;
34711;SDS011;20941;42.408;25.634;2024-01-15T00:03:36;58.92;;;22.73;;
34711;SDS011;20941;42.408;25.634;2024-01-15T00:06:02;55.08;;;22.40;;
34711;SDS011;20941;42.408;25.634;2024-01-15T00:08:27;58.60;;;22.63;;
34711;SDS011;20941;42.408;25.634;2024-01-15T00:10:53;53.22;;;21.70;;
34711;SDS011;20941;42.408;25.634;2024-01-15T00:13:18;50.22;;;19.70;;
34711;SDS011;20941;42.408;25.634;2024-01-15T00:15:43;43.60;;;18.67;;
34711;SDS011;20941;42.408;25.634;2024-01-15T00:18:09;47.17;;;18.60;;
34711;SDS011;20941;42.408;25.634;2024-01-15T00:20:34;45.60;;;18.70;;
34711;SDS011;20941;42.408;25.634;2024-01-15T00:23:00;51.95;;;20.50;;
34711;SDS011;20941;42.408;25.634;2024-01-15T00:25:25;51.65;;;20.20;;
34711;SDS011;20941;42.408;25.634;2024-01-15T00:27:50;54.53;;;20.58;;
34711;SDS011;20941;42.408;25.634;2024-01-15T00:30:16;53.53;;;20.80;;
34711;SDS011;20941;42.408;25.634;2024-01-15T00:32:41;47.72;;;18.80;;
34711;SDS011;20941;42.408;25.634;2024-01-15T00:35:07;51.17;;;19.48;;
34711;SDS011;20941;42.408;25.634;2024-01-15T00:37:32;47.00;;;19.13;;
34711;SDS011;20941;42.408;25.634;2024-01-15T00:39:58;43.22;;;17.88;;
34711;SDS011;20941;42.408;25.634;2024-01-15T00:42:23;54.58;;;19.52;;
34711;SDS011;20941;42.408;25.634;2024-01-15T00:44:48;51.28;;;18.83;;
34711;SDS011;20941;42.408;25.634;2024-01-15T00:47:14;49.38;;;19.65;;
34711;SDS011;20941;42.408;25.634;2024-01-15T00:49:39;50.85;;;19.23;;
34711;SDS011;20941;42.408;25.634;2024-01-15T00:52:05;45.58;;;17.25;;
34711;SDS011;20941;42.408;25.634;2024-01-15T00:54:30;43.35;;;15.57;;
34711;SDS011;20941;42.408;25.634;2024-01-15T00:56:55;30.98;;;12.75;;
34711;SDS011;20941;42.408;25.634;2024-01-15T00:59:21;38.70;;;15.15;;
34711;SDS011;20941;42.408;25.634;2024-01-15T01:01:46;40.85;;;15.70;;
34711;SDS011;20941;42.408;25.634;2024-01-15T01:04:12;41.10;;;16.50;;
34711;SDS011;20941;42.408;25.634;2024-01-15T01:06:38;42.63;;;16.90;;
34711;SDS011;20941;42.408;25.634;2024-01-15T01:09:03;37.50;;;15.40;;
34711;SDS011;20941;42.408;25.634;2024-01-15T01:11:29;52.72;;;20.80;;
34711;SDS011;20941;42.408;25.634;2024-01-15T01:13:54;43.00;;;17.58;;
34711;SDS011;20941;42.408;25.634;2024-01-15T01:16:21;46.03;;;19.13;;
34711;SDS011;20941;42.408;25.634;2024-01-15T01:18:47;55.47;;;21.45;;
34711;SDS011;20941;42.408;25.634;2024-01-15T01:21:12;53.83;;;21.73;;
34711;SDS011;20941;42.408;25.634;2024-01-15T01:23:37;55.53;;;22.10;;
34711;SDS011;20941;42.408;25.634;2024-01-15T01:26:03;38.75;;;13.88;;
34711;SDS011;20941;42.408;25.634;2024-01-15T01:28:28;71.57;;;23.70;;
34711;SDS011;20941;42.408;25.634;2024-01-15T01:30:53;59.85;;;22.00;;
34711;SDS011;20941;42.408;25.634;2024-01-15T01:33:19;62.60;;;21.80;;
34711;SDS011;20941;42.408;25.634;2024-01-15T01:35:45;52.05;;;21.63;;
34711;SDS011;20941;42.408;25.634;2024-01-15T01:38:11;64.93;;;21.50;;
34711;SDS011;20941;42.408;25.634;2024-01-15T01:40:37;47.75;;;21.55;;
34711;SDS011;20941;42.408;25.634;2024-01-15T01:43:03;54.92;;;21.05;;
34711;SDS011;20941;42.408;25.634;2024-01-15T01:45:28;55.85;;;21.80;;
34711;SDS011;20941;42.408;25.634;2024-01-15T01:47:53;67.18;;;22.90;;
34711;SDS011;20941;42.408;25.634;2024-01-15T01:50:19;56.25;;;22.30;;
34711;SDS011;20941;42.408;25.634;2024-01-15T01:52:44;55.75;;;21.33;;
34711;SDS011;20941;42.408;25.634;2024-01-15T01:55:10;53.63;;;20.90;;
34711;SDS011;20941;42.408;25.634;2024-01-15T01:57:36;50.72;;;20.60;;
34711;SDS011;20941;42.408;25.634;2024-01-15T02:00:02;56.25;;;21.05;;
34711;SDS011;20941;42.408;25.634;2024-01-15T02:02:29;60.13;;;20.60;;
34711;SDS011;20941;42.408;25.634;2024-01-15T02:04:54;53.88;;;21.15;;
34711;SDS011;20941;42.408;25.634;2024-01-15T02:07:19;54.42;;;20.38;;
34711;SDS011;20941;42.408;25.634;2024-01-15T02:09:46;56.88;;;21.63;;
34711;SDS011;20941;42.408;25.634;2024-01-15T02:12:11;62.17;;;21.88;;
34711;SDS011;20941;42.408;25.634;2024-01-15T02:14:36;54.47;;;21.15;;
34711;SDS011;20941;42.408;25.634;2024-01-15T02:17:02;52.65;;;20.58;;
34711;SDS011;20941;42.408;25.634;2024-01-15T02:19:27;51.38;;;21.42;;
34711;SDS011;20941;42.408;25.634;2024-01-15T02:21:53;59.75;;;20.48;;
34711;SDS011;20941;42.408;25.634;2024-01-15T02:24:18;52.95;;;19.63;;
34711;SDS011;20941;42.408;25.634;2024-01-15T02:26:43;47.63;;;19.95;;
34711;SDS011;20941;42.408;25.634;2024-01-15T02:29:09;53.15;;;20.48;;
34711;SDS011;20941;42.408;25.634;2024-01-15T02:31:35;50.13;;;20.55;;
34711;SDS011;20941;42.408;25.634;2024-01-15T02:34:00;59.72;;;20.90;;
34711;SDS011;20941;42.408;25.634;2024-01-15T02:36:26;52.28;;;20.73;;
34711;SDS011;20941;42.408;25.634;2024-01-15T02:38:51;48.28;;;19.98;;
34711;SDS011;20941;42.408;25.634;2024-01-15T02:41:17;58.25;;;20.42;;
34711;SDS011;20941;42.408;25.634;2024-01-15T02:43:43;53.13;;;20.23;;
34711;SDS011;20941;42.408;25.634;2024-01-15T02:46:09;51.08;;;19.85;;
34711;SDS011;20941;42.408;25.634;2024-01-15T02:48:34;75.57;;;22.70;;
34711;SDS011;20941;42.408;25.634;2024-01-15T02:51:02;55.90;;;21.85;;
34711;SDS011;20941;42.408;25.634;2024-01-15T02:53:28;56.10;;;20.75;;
34711;SDS011;20941;42.408;25.634;2024-01-15T02:55:53;56.90;;;19.52;;
34711;SDS011;20941;42.408;25.634;2024-01-15T02:58:19;57.97;;;21.65;;
34711;SDS011;20941;42.408;25.634;2024-01-15T03:00:44;52.38;;;20.30;;
34711;SDS011;20941;42.408;25.634;2024-01-15T03:03:11;50.38;;;20.05;;
34711;SDS011;20941;42.408;25.634;2024-01-15T03:05:36;53.40;;;20.85;;
34711;SDS011;20941;42.408;25.634;2024-01-15T03:08:02;61.80;;;20.73;;
34711;SDS011;20941;42.408;25.634;2024-01-15T03:10:27;51.80;;;20.70;;
34711;SDS011;20941;42.408;25.634;2024-01-15T03:12:52;55.65;;;21.17;;
34711;SDS011;20941;42.408;25.634;2024-01-15T03:15:18;56.20;;;20.30;;
34711;SDS011;20941;42.408;25.634;2024-01-15T03:17:44;57.72;;;21.60;;
34711;SDS011;20941;42.408;25.634;2024-01-15T03:20:09;52.25;;;21.65;;
34711;SDS011;20941;42.408;25.634;2024-01-15T03:22:35;54.72;;;19.55;;
34711;SDS011;20941;42.408;25.634;2024-01-15T03:25:01;56.17;;;20.42;;
34711;SDS011;20941;42.408;25.634;2024-01-15T03:27:26;55.95;;;20.50;;
34711;SDS011;20941;42.408;25.634;2024-01-15T03:29:51;54.80;;;20.88;;
34711;SDS011;20941;42.408;25.634;2024-01-15T03:32:17;52.97;;;21.00;;
34711;SDS011;20941;42.408;25.634;2024-01-15T03:34:42;47.40;;;19.73;;
34711;SDS011;20941;42.408;25.634;2024-01-15T03:37:08;56.13;;;21.35;;
34711;SDS011;20941;42.408;25.634;2024-01-15T03:39:33;57.97;;;22.08;;
34711;SDS011;20941;42.408;25.634;2024-01-15T03:41:59;55.88;;;21.02;;
34711;SDS011;20941;42.408;25.634;2024-01-15T03:44:24;61.72;;;21.05;;
34711;SDS011;20941;42.408;25.634;2024-01-15T03:46:50;48.45;;;19.17;;
34711;SDS011;20941;42.408;25.634;2024-01-15T03:49:15;53.13;;;20.90;;
34711;SDS011;20941;42.408;25.634;2024-01-15T03:51:40;51.97;;;20.65;;
34711;SDS011;20941;42.408;25.634;2024-01-15T03:54:06;58.33;;;21.45;;
34711;SDS011;20941;42.408;25.634;2024-01-15T03:56:31;60.70;;;21.85;;
34711;SDS011;20941;42.408;25.634;2024-01-15T03:58:57;59.78;;;21.80;;
34711;SDS011;20941;42.408;25.634;2024-01-15T04:01:22;59.53;;;20.38;;
34711;SDS011;20941;42.408;25.634;2024-01-15T04:03:47;61.83;;;22.33;;
34711;SDS011;20941;42.408;25.634;2024-01-15T04:06:13;55.47;;;20.35;;
34711;SDS011;20941;42.408;25.634;2024-01-15T04:08:38;48.42;;;20.02;;
34711;SDS011;20941;42.408;25.634;2024-01-15T04:11:04;67.88;;;23.90;;
34711;SDS011;20941;42.408;25.634;2024-01-15T04:13:32;62.35;;;23.75;;
34711;SDS011;20941;42.408;25.634;2024-01-15T04:15:57;60.35;;;21.10;;
34711;SDS011;20941;42.408;25.634;2024-01-15T04:18:22;71.18;;;22.98;;
34711;SDS011;20941;42.408;25.634;2024-01-15T04:20:48;52.05;;;20.45;;
34711;SDS011;20941;42.408;25.634;2024-01-15T04:23:13;61.30;;;21.17;;
34711;SDS011;20941;42.408;25.634;2024-01-15T04:25:38;55.63;;;22.50;;
34711;SDS011;20941;42.408;25.634;2024-01-15T04:28:07;66.47;;;24.05;;
34711;SDS011;20941;42.408;25.634;2024-01-15T04:30:33;76.97;;;26.85;;
34711;SDS011;20941;42.408;25.634;2024-01-15T04:32:58;51.60;;;19.05;;
34711;SDS011;20941;42.408;25.634;2024-01-15T04:35:24;66.57;;;25.52;;
34711;SDS011;20941;42.408;25.634;2024-01-15T04:37:49;79.28;;;28.50;;
34711;SDS011;20941;42.408;25.634;2024-01-15T04:40:14;70.30;;;28.27;;
34711;SDS011;20941;42.408;25.634;2024-01-15T04:42:40;88.35;;;29.98;;
34711;SDS011;20941;42.408;25.634;2024-01-15T04:45:05;75.57;;;29.73;;
34711;SDS011;20941;42.408;25.634;2024-01-15T04:47:31;84.15;;;31.38;;
34711;SDS011;20941;42.408;25.634;2024-01-15T04:49:56;83.75;;;31.42;;
34711;SDS011;20941;42.408;25.634;2024-01-15T04:52:22;85.78;;;29.60;;
34711;SDS011;20941;42.408;25.634;2024-01-15T04:54:47;79.03;;;27.75;;
34711;SDS011;20941;42.408;25.634;2024-01-15T04:57:12;66.65;;;28.25;;
34711;SDS011;20941;42.408;25.634;2024-01-15T04:59:38;75.07;;;27.33;;
34711;SDS011;20941;42.408;25.634;2024-01-15T05:02:04;63.67;;;23.23;;
34711;SDS011;20941;42.408;25.634;2024-01-15T05:04:30;67.47;;;25.77;;
34711;SDS011;20941;42.408;25.634;2024-01-15T05:06:55;80.85;;;26.73;;
34711;SDS011;20941;42.408;25.634;2024-01-15T05:09:20;69.28;;;24.40;;
34711;SDS011;20941;42.408;25.634;2024-01-15T05:11:46;68.35;;;26.20;;
34711;SDS011;20941;42.408;25.634;2024-01-15T05:14:11;76.85;;;27.92;;
34711;SDS011;20941;42.408;25.634;2024-01-15T05:16:46;77.05;;;28.85;;
34711;SDS011;20941;42.408;25.634;2024-01-15T05:19:13;74.38;;;28.15;;
34711;SDS011;20941;42.408;25.634;2024-01-15T05:21:38;76.47;;;27.00;;
34711;SDS011;20941;42.408;25.634;2024-01-15T05:24:04;77.28;;;29.25;;
34711;SDS011;20941;42.408;25.634;2024-01-15T05:26:29;79.82;;;30.90;;
34711;SDS011;20941;42.408;25.634;2024-01-15T05:28:55;90.85;;;31.63;;
34711;SDS011;20941;42.408;25.634;2024-01-15T05:31:20;85.80;;;31.85;;
34711;SDS011;20941;42.408;25.634;2024-01-15T05:33:46;85.28;;;30.67;;
34711;SDS011;20941;42.408;25.634;2024-01-15T05:36:11;85.38;;;32.92;;
34711;SDS011;20941;42.408;25.634;2024-01-15T05:38:36;93.88;;;33.83;;
34711;SDS011;20941;42.408;25.634;2024-01-15T05:41:02;90.63;;;33.67;;
34711;SDS011;20941;42.408;25.634;2024-01-15T05:43:27;89.45;;;32.63;;
34711;SDS011;20941;42.408;25.634;2024-01-15T05:45:53;94.70;;;31.98;;
34711;SDS011;20941;42.408;25.634;2024-01-15T05:48:18;84.10;;;30.90;;
34711;SDS011;20941;42.408;25.634;2024-01-15T05:50:43;79.38;;;32.45;;
34711;SDS011;20941;42.408;25.634;2024-01-15T05:53:09;90.90;;;35.67;;
34711;SDS011;20941;42.408;25.634;2024-01-15T05:55:35;100.53;;;38.05;;
34711;SDS011;20941;42.408;25.634;2024-01-15T05:58:01;108.55;;;41.40;;
34711;SDS011;20941;42.408;25.634;2024-01-15T06:00:26;124.82;;;48.92;;
34711;SDS011;20941;42.408;25.634;2024-01-15T06:02:52;136.35;;;51.63;;
34711;SDS011;20941;42.408;25.634;2024-01-15T06:05:17;149.40;;;54.35;;
34711;SDS011;20941;42.408;25.634;2024-01-15T06:07:43;137.00;;;49.15;;
34711;SDS011;20941;42.408;25.634;2024-01-15T06:10:08;141.27;;;51.85;;
34711;SDS011;20941;42.408;25.634;2024-01-15T06:12:34;167.15;;;57.50;;
34711;SDS011;20941;42.408;25.634;2024-01-15T06:15:00;207.48;;;65.35;;
34711;SDS011;20941;42.408;25.634;2024-01-15T06:17:25;170.35;;;57.40;;
34711;SDS011;20941;42.408;25.634;2024-01-15T06:19:51;182.27;;;60.88;;
34711;SDS011;20941;42.408;25.634;2024-01-15T06:22:16;180.73;;;61.95;;
34711;SDS011;20941;42.408;25.634;2024-01-15T06:24:41;181.43;;;59.97;;
34711;SDS011;20941;42.408;25.634;2024-01-15T06:27:07;134.82;;;52.22;;
34711;SDS011;20941;42.408;25.634;2024-01-15T06:29:33;154.50;;;53.40;;
34711;SDS011;20941;42.408;25.634;2024-01-15T06:31:58;164.73;;;62.17;;
34711;SDS011;20941;42.408;25.634;2024-01-15T06:34:24;134.45;;;51.80;;
34711;SDS011;20941;42.408;25.634;2024-01-15T06:36:49;146.85;;;51.45;;
34711;SDS011;20941;42.408;25.634;2024-01-15T06:39:15;156.50;;;56.17;;
34711;SDS011;20941;42.408;25.634;2024-01-15T06:41:40;170.57;;;57.17;;
34711;SDS011;20941;42.408;25.634;2024-01-15T06:44:11;148.10;;;44.47;;
34711;SDS011;20941;42.408;25.634;2024-01-15T06:46:37;96.82;;;32.95;;
34711;SDS011;20941;42.408;25.634;2024-01-15T06:49:06;93.40;;;30.42;;
34711;SDS011;20941;42.408;25.634;2024-01-15T06:51:32;103.88;;;31.48;;
34711;SDS011;20941;42.408;25.634;2024-01-15T06:53:57;274.42;;;88.75;;
34711;SDS011;20941;42.408;25.634;2024-01-15T06:56:22;172.80;;;51.17;;
34711;SDS011;20941;42.408;25.634;2024-01-15T06:58:48;119.97;;;40.25;;
34711;SDS011;20941;42.408;25.634;2024-01-15T07:01:13;126.75;;;43.75;;
34711;SDS011;20941;42.408;25.634;2024-01-15T07:03:39;126.80;;;40.25;;
34711;SDS011;20941;42.408;25.634;2024-01-15T07:06:05;134.98;;;41.28;;
34711;SDS011;20941;42.408;25.634;2024-01-15T07:08:30;75.72;;;27.98;;
34711;SDS011;20941;42.408;25.634;2024-01-15T07:10:55;61.25;;;24.88;;
34711;SDS011;20941;42.408;25.634;2024-01-15T07:13:21;71.80;;;25.88;;
34711;SDS011;20941;42.408;25.634;2024-01-15T07:15:47;75.03;;;25.92;;
34711;SDS011;20941;42.408;25.634;2024-01-15T07:18:12;89.72;;;29.55;;
34711;SDS011;20941;42.408;25.634;2024-01-15T07:20:38;81.72;;;31.80;;
34711;SDS011;20941;42.408;25.634;2024-01-15T07:23:03;77.55;;;28.70;;
34711;SDS011;20941;42.408;25.634;2024-01-15T07:25:29;56.22;;;26.00;;
34711;SDS011;20941;42.408;25.634;2024-01-15T07:27:54;66.63;;;25.60;;
34711;SDS011;20941;42.408;25.634;2024-01-15T07:30:20;72.22;;;26.25;;
34711;SDS011;20941;42.408;25.634;2024-01-15T07:32:47;71.10;;;25.00;;
34711;SDS011;20941;42.408;25.634;2024-01-15T07:35:13;46.70;;;19.30;;
34711;SDS011;20941;42.408;25.634;2024-01-15T07:37:38;51.72;;;19.38;;
34711;SDS011;20941;42.408;25.634;2024-01-15T07:40:04;45.55;;;17.35;;
34711;SDS011;20941;42.408;25.634;2024-01-15T07:42:30;48.45;;;18.77;;
34711;SDS011;20941;42.408;25.634;2024-01-15T07:44:56;50.92;;;18.90;;
34711;SDS011;20941;42.408;25.634;2024-01-15T07:47:21;48.45;;;17.30;;
34711;SDS011;20941;42.408;25.634;2024-01-15T07:49:47;55.47;;;19.30;;
34711;SDS011;20941;42.408;25.634;2024-01-15T07:52:12;59.95;;;19.60;;
34711;SDS011;20941;42.408;25.634;2024-01-15T07:54:38;88.57;;;31.20;;
34711;SDS011;20941;42.408;25.634;2024-01-15T07:57:04;101.75;;;33.75;;
34711;SDS011;20941;42.408;25.634;2024-01-15T07:59:29;85.13;;;31.45;;
34711;SDS011;20941;42.408;25.634;2024-01-15T08:01:55;71.32;;;29.88;;
34711;SDS011;20941;42.408;25.634;2024-01-15T08:04:20;72.13;;;28.70;;
34711;SDS011;20941;42.408;25.634;2024-01-15T08:06:47;83.95;;;31.70;;
34711;SDS011;20941;42.408;25.634;2024-01-15T08:09:12;88.22;;;34.05;;
34711;SDS011;20941;42.408;25.634;2024-01-15T08:11:41;66.15;;;29.38;;
34711;SDS011;20941;42.408;25.634;2024-01-15T08:14:07;81.70;;;30.50;;
34711;SDS011;20941;42.408;25.634;2024-01-15T08:16:32;83.75;;;32.47;;
34711;SDS011;20941;42.408;25.634;2024-01-15T08:18:57;83.03;;;32.15;;
34711;SDS011;20941;42.408;25.634;2024-01-15T08:21:23;79.65;;;30.25;;
34711;SDS011;20941;42.408;25.634;2024-01-15T08:23:48;69.45;;;27.48;;
34711;SDS011;20941;42.408;25.634;2024-01-15T08:26:14;73.20;;;26.88;;
34711;SDS011;20941;42.408;25.634;2024-01-15T08:28:39;62.17;;;26.20;;
34711;SDS011;20941;42.408;25.634;2024-01-15T08:31:04;66.57;;;27.98;;
34711;SDS011;20941;42.408;25.634;2024-01-15T08:33:30;81.25;;;31.15;;
34711;SDS011;20941;42.408;25.634;2024-01-15T08:35:55;67.13;;;30.80;;
34711;SDS011;20941;42.408;25.634;2024-01-15T08:38:21;66.85;;;30.98;;
34711;SDS011;20941;42.408;25.634;2024-01-15T08:40:46;83.82;;;37.75;;
34711;SDS011;20941;42.408;25.634;2024-01-15T08:43:12;139.15;;;60.10;;
34711;SDS011;20941;42.408;25.634;2024-01-15T08:45:38;99.13;;;45.40;;
34711;SDS011;20941;42.408;25.634;2024-01-15T08:48:03;96.03;;;40.00;;
34711;SDS011;20941;42.408;25.634;2024-01-15T08:50:29;54.65;;;22.83;;
34711;SDS011;20941;42.408;25.634;2024-01-15T08:52:54;69.43;;;27.30;;
34711;SDS011;20941;42.408;25.634;2024-01-15T08:55:20;68.45;;;24.92;;
34711;SDS011;20941;42.408;25.634;2024-01-15T08:57:47;53.90;;;23.38;;
34711;SDS011;20941;42.408;25.634;2024-01-15T09:00:13;68.22;;;24.10;;
34711;SDS011;20941;42.408;25.634;2024-01-15T09:02:38;81.80;;;33.30;;
34711;SDS011;20941;42.408;25.634;2024-01-15T09:05:04;75.97;;;31.17;;
34711;SDS011;20941;42.408;25.634;2024-01-15T09:07:29;72.32;;;27.48;;
34711;SDS011;20941;42.408;25.634;2024-01-15T09:09:55;65.65;;;24.85;;
34711;SDS011;20941;42.408;25.634;2024-01-15T09:12:20;55.70;;;23.05;;
34711;SDS011;20941;42.408;25.634;2024-01-15T09:14:47;50.47;;;22.27;;
34711;SDS011;20941;42.408;25.634;2024-01-15T09:17:12;50.78;;;21.48;;
34711;SDS011;20941;42.408;25.634;2024-01-15T09:19:38;51.85;;;22.40;;
34711;SDS011;20941;42.408;25.634;2024-01-15T09:22:07;47.22;;;21.67;;
34711;SDS011;20941;42.408;25.634;2024-01-15T09:24:32;58.50;;;22.00;;
34711;SDS011;20941;42.408;25.634;2024-01-15T09:26:58;56.15;;;21.05;;
34711;SDS011;20941;42.408;25.634;2024-01-15T09:29:23;47.22;;;19.85;;
34711;SDS011;20941;42.408;25.634;2024-01-15T09:31:49;59.95;;;21.13;;
34711;SDS011;20941;42.408;25.634;2024-01-15T09:34:15;55.30;;;20.15;;
34711;SDS011;20941;42.408;25.634;2024-01-15T09:36:40;57.08;;;23.33;;
34711;SDS011;20941;42.408;25.634;2024-01-15T09:39:07;58.28;;;23.80;;
34711;SDS011;20941;42.408;25.634;2024-01-15T09:41:34;69.78;;;27.48;;
34711;SDS011;20941;42.408;25.634;2024-01-15T09:44:00;49.35;;;21.15;;
34711;SDS011;20941;42.408;25.634;2024-01-15T09:46:25;42.28;;;18.75;;
34711;SDS011;20941;42.408;25.634;2024-01-15T09:48:50;56.65;;;21.00;;
34711;SDS011;20941;42.408;25.634;2024-01-15T09:51:16;53.00;;;21.08;;
34711;SDS011;20941;42.408;25.634;2024-01-15T09:53:44;47.50;;;20.10;;
34711;SDS011;20941;42.408;25.634;2024-01-15T09:56:10;46.42;;;21.15;;
34711;SDS011;20941;42.408;25.634;2024-01-15T09:58:37;55.40;;;21.25;;
34711;SDS011;20941;42.408;25.634;2024-01-15T10:01:03;41.65;;;19.90;;
34711;SDS011;20941;42.408;25.634;2024-01-15T10:03:29;45.08;;;21.88;;
34711;SDS011;20941;42.408;25.634;2024-01-15T10:05:55;52.90;;;23.17;;
34711;SDS011;20941;42.408;25.634;2024-01-15T10:08:21;93.65;;;36.17;;
34711;SDS011;20941;42.408;25.634;2024-01-15T10:10:47;89.65;;;32.78;;
34711;SDS011;20941;42.408;25.634;2024-01-15T10:13:13;53.08;;;22.92;;
34711;SDS011;20941;42.408;25.634;2024-01-15T10:15:39;63.88;;;24.85;;
34711;SDS011;20941;42.408;25.634;2024-01-15T10:18:05;66.38;;;26.38;;
34711;SDS011;20941;42.408;25.634;2024-01-15T10:20:31;54.47;;;23.08;;
34711;SDS011;20941;42.408;25.634;2024-01-15T10:22:57;53.00;;;21.90;;
34711;SDS011;20941;42.408;25.634;2024-01-15T10:25:22;55.97;;;23.02;;
34711;SDS011;20941;42.408;25.634;2024-01-15T10:28:00;40.75;;;19.42;;
34711;SDS011;20941;42.408;25.634;2024-01-15T10:30:26;39.88;;;19.58;;
34711;SDS011;20941;42.408;25.634;2024-01-15T10:33:02;48.63;;;20.88;;
34711;SDS011;20941;42.408;25.634;2024-01-15T10:35:31;46.55;;;19.67;;
34711;SDS011;20941;42.408;25.634;2024-01-15T10:37:57;44.83;;;19.27;;
34711;SDS011;20941;42.408;25.634;2024-01-15T10:40:22;41.78;;;19.17;;
34711;SDS011;20941;42.408;25.634;2024-01-15T10:42:48;47.30;;;19.25;;
34711;SDS011;20941;42.408;25.634;2024-01-15T10:45:13;45.78;;;20.35;;
34711;SDS011;20941;42.408;25.634;2024-01-15T10:47:39;50.90;;;19.60;;
34711;SDS011;20941;42.408;25.634;2024-01-15T10:50:05;43.28;;;19.58;;
34711;SDS011;20941;42.408;25.634;2024-01-15T10:52:33;74.32;;;27.98;;
34711;SDS011;20941;42.408;25.634;2024-01-15T10:54:59;41.90;;;19.05;;
34711;SDS011;20941;42.408;25.634;2024-01-15T10:57:24;41.88;;;17.48;;
34711;SDS011;20941;42.408;25.634;2024-01-15T10:59:51;37.80;;;18.25;;
34711;SDS011;20941;42.408;25.634;2024-01-15T11:02:16;42.83;;;22.05;;
34711;SDS011;20941;42.408;25.634;2024-01-15T11:04:42;45.25;;;22.85;;
34711;SDS011;20941;42.408;25.634;2024-01-15T11:07:07;69.20;;;27.95;;
34711;SDS011;20941;42.408;25.634;2024-01-15T11:09:34;62.95;;;25.58;;
34711;SDS011;20941;42.408;25.634;2024-01-15T11:12:07;60.35;;;25.90;;
34711;SDS011;20941;42.408;25.634;2024-01-15T11:14:35;80.18;;;31.35;;
34711;SDS011;20941;42.408;25.634;2024-01-15T11:17:03;73.13;;;35.67;;
34711;SDS011;20941;42.408;25.634;2024-01-15T11:19:46;75.40;;;37.35;;
34711;SDS011;20941;42.408;25.634;2024-01-15T11:24:56;62.10;;;27.80;;
34711;SDS011;20941;42.408;25.634;2024-01-15T11:27:41;60.63;;;23.80;;
34711;SDS011;20941;42.408;25.634;2024-01-15T11:30:11;56.97;;;23.27;;
34711;SDS011;20941;42.408;25.634;2024-01-15T11:32:36;51.55;;;23.60;;
34711;SDS011;20941;42.408;25.634;2024-01-15T11:35:02;57.42;;;23.23;;
34711;SDS011;20941;42.408;25.634;2024-01-15T11:37:29;63.35;;;25.23;;
34711;SDS011;20941;42.408;25.634;2024-01-15T11:39:55;43.88;;;19.92;;
34711;SDS011;20941;42.408;25.634;2024-01-15T11:42:22;54.80;;;21.77;;
34711;SDS011;20941;42.408;25.634;2024-01-15T11:44:47;38.42;;;18.90;;
34711;SDS011;20941;42.408;25.634;2024-01-15T11:47:13;45.50;;;19.35;;
34711;SDS011;20941;42.408;25.634;2024-01-15T11:52:23;44.72;;;18.10;;
34711;SDS011;20941;42.408;25.634;2024-01-15T11:54:58;40.03;;;18.00;;
34711;SDS011;20941;42.408;25.634;2024-01-15T11:58:12;45.22;;;18.52;;
34711;SDS011;20941;42.408;25.634;2024-01-15T12:00:13;47.13;;;18.90;;
34711;SDS011;20941;42.408;25.634;2024-01-15T12:02:42;44.85;;;18.75;;
34711;SDS011;20941;42.408;25.634;2024-01-15T12:05:11;40.40;;;18.63;;
34711;SDS011;20941;42.408;25.634;2024-01-15T12:07:41;44.53;;;20.02;;
34711;SDS011;20941;42.408;25.634;2024-01-15T12:10:10;41.85;;;20.17;;
34711;SDS011;20941;42.408;25.634;2024-01-15T12:15:08;52.75;;;21.60;;
34711;SDS011;20941;42.408;25.634;2024-01-15T12:17:34;50.13;;;21.45;;
34711;SDS011;20941;42.408;25.634;2024-01-15T12:19:59;56.35;;;21.48;;
34711;SDS011;20941;42.408;25.634;2024-01-15T12:22:25;47.72;;;19.55;;
34711;SDS011;20941;42.408;25.634;2024-01-15T12:24:52;45.22;;;18.23;;
34711;SDS011;20941;42.408;25.634;2024-01-15T12:27:18;49.20;;;22.05;;
34711;SDS011;20941;42.408;25.634;2024-01-15T12:29:43;48.42;;;20.67;;
34711;SDS011;20941;42.408;25.634;2024-01-15T12:32:08;42.35;;;19.52;;
34711;SDS011;20941;42.408;25.634;2024-01-15T12:34:34;40.03;;;18.48;;
34711;SDS011;20941;42.408;25.634;2024-01-15T12:37:00;38.72;;;18.95;;
34711;SDS011;20941;42.408;25.634;2024-01-15T12:39:25;41.47;;;18.42;;
34711;SDS011;20941;42.408;25.634;2024-01-15T12:41:51;40.40;;;17.92;;
34711;SDS011;20941;42.408;25.634;2024-01-15T12:44:16;33.75;;;17.23;;
34711;SDS011;20941;42.408;25.634;2024-01-15T12:46:42;48.90;;;18.00;;
34711;SDS011;20941;42.408;25.634;2024-01-15T12:49:08;44.28;;;18.80;;
34711;SDS011;20941;42.408;25.634;2024-01-15T12:51:34;44.22;;;18.92;;
34711;SDS011;20941;42.408;25.634;2024-01-15T12:53:59;46.13;;;18.52;;
34711;SDS011;20941;42.408;25.634;2024-01-15T12:56:25;37.42;;;17.08;;
34711;SDS011;20941;42.408;25.634;2024-01-15T12:58:50;40.70;;;17.98;;
34711;SDS011;20941;42.408;25.634;2024-01-15T13:01:15;34.40;;;17.02;;
34711;SDS011;20941;42.408;25.634;2024-01-15T13:03:41;39.65;;;16.80;;
34711;SDS011;20941;42.408;25.634;2024-01-15T13:06:06;48.45;;;16.95;;
34711;SDS011;20941;42.408;25.634;2024-01-15T13:08:32;56.10;;;18.95;;
34711;SDS011;20941;42.408;25.634;2024-01-15T13:10:57;60.30;;;18.95;;
34711;SDS011;20941;42.408;25.634;2024-01-15T13:13:23;56.00;;;19.13;;
34711;SDS011;20941;42.408;25.634;2024-01-15T13:15:48;54.60;;;20.42;;
34711;SDS011;20941;42.408;25.634;2024-01-15T13:18:14;52.55;;;19.65;;
34711;SDS011;20941;42.408;25.634;2024-01-15T13:20:39;46.38;;;20.35;;
34711;SDS011;20941;42.408;25.634;2024-01-15T13:23:04;65.80;;;22.58;;
34711;SDS011;20941;42.408;25.634;2024-01-15T13:25:30;57.28;;;21.20;;
34711;SDS011;20941;42.408;25.634;2024-01-15T13:27:55;57.80;;;21.45;;
34711;SDS011;20941;42.408;25.634;2024-01-15T13:30:21;53.88;;;21.70;;
34711;SDS011;20941;42.408;25.634;2024-01-15T13:32:46;37.92;;;19.85;;
34711;SDS011;20941;42.408;25.634;2024-01-15T13:35:12;50.13;;;21.20;;
34711;SDS011;20941;42.408;25.634;2024-01-15T13:37:38;64.20;;;20.75;;
34711;SDS011;20941;42.408;25.634;2024-01-15T13:40:06;47.40;;;20.35;;
34711;SDS011;20941;42.408;25.634;2024-01-15T13:42:33;40.60;;;19.88;;
34711;SDS011;20941;42.408;25.634;2024-01-15T13:44:59;46.90;;;20.60;;
34711;SDS011;20941;42.408;25.634;2024-01-15T13:47:24;50.15;;;20.70;;
34711;SDS011;20941;42.408;25.634;2024-01-15T13:49:49;50.00;;;21.63;;
34711;SDS011;20941;42.408;25.634;2024-01-15T13:52:15;56.13;;;25.42;;
34711;SDS011;20941;42.408;25.634;2024-01-15T13:57:24;46.50;;;21.80;;
34711;SDS011;20941;42.408;25.634;2024-01-15T13:59:50;52.08;;;22.60;;
34711;SDS011;20941;42.408;25.634;2024-01-15T14:02:15;61.53;;;26.77;;
34711;SDS011;20941;42.408;25.634;2024-01-15T14:04:44;64.57;;;25.85;;
34711;SDS011;20941;42.408;25.634;2024-01-15T14:07:09;92.28;;;33.40;;
34711;SDS011;20941;42.408;25.634;2024-01-15T14:09:35;88.85;;;34.60;;
34711;SDS011;20941;42.408;25.634;2024-01-15T14:12:02;73.03;;;31.00;;